sensor_id;sensor_type;location;lat;lon;timestamp;P1;durP1;ratioP1;P2;durP2;ratioP2
6549;SDS011;15142;48.888;9.134;2023-02-28T00:00:13;11.53;;;3.73;;
6549;SDS011;15142;48.888;9.134;2023-02-28T00:02:41;5.10;;;3.20;;
6549;SDS011;15142;48.888;9.134;2023-02-28T00:05:09;6.80;;;3.27;;
6549;SDS011;15142;48.888;9.134;2023-02-28T00:07:37;6.37;;;2.83;;
6549;SDS011;15142;48.888;9.134;2023-02-28T00:10:06;6.03;;;2.93;;
6549;SDS011;15142;48.888;9.134;2023-02-28T00:12:35;8.50;;;3.47;;
6549;SDS011;15142;48.888;9.134;2023-02-28T00:15:05;3.97;;;2.60;;
6549;SDS011;15142;48.888;9.134;2023-02-28T00:17:33;3.70;;;2.17;;
6549;SDS011;15142;48.888;9.134;2023-02-28T00:19:59;4.00;;;2.93;;
6549;SDS011;15142;48.888;9.134;2023-02-28T00:22:35;4.10;;;2.80;;
6549;SDS011;15142;48.888;9.134;2023-02-28T00:25:02;4.70;;;2.70;;
6549;SDS011;15142;48.888;9.134;2023-02-28T00:27:30;10.00;;;2.90;;
6549;SDS011;15142;48.888;9.134;2023-02-28T00:29:57;4.87;;;2.70;;
6549;SDS011;15142;48.888;9.134;2023-02-28T00:32:24;5.00;;;2.90;;
6549;SDS011;15142;48.888;9.134;2023-02-28T00:34:50;3.20;;;2.90;;
6549;SDS011;15142;48.888;9.134;2023-02-28T00:37:17;6.37;;;3.27;;
6549;SDS011;15142;48.888;9.134;2023-02-28T00:39:43;5.07;;;3.50;;
6549;SDS011;15142;48.888;9.134;2023-02-28T00:42:10;5.13;;;2.97;;
6549;SDS011;15142;48.888;9.134;2023-02-28T00:44:38;2.37;;;2.17;;
6549;SDS011;15142;48.888;9.134;2023-02-28T00:47:05;4.77;;;3.33;;
6549;SDS011;15142;48.888;9.134;2023-02-28T00:49:31;4.63;;;2.70;;
6549;SDS011;15142;48.888;9.134;2023-02-28T00:51:58;2.63;;;2.40;;
6549;SDS011;15142;48.888;9.134;2023-02-28T00:54:25;7.40;;;3.27;;
6549;SDS011;15142;48.888;9.134;2023-02-28T00:56:52;6.80;;;2.80;;
6549;SDS011;15142;48.888;9.134;2023-02-28T00:59:18;5.27;;;3.10;;
6549;SDS011;15142;48.888;9.134;2023-02-28T01:01:46;3.47;;;3.17;;
6549;SDS011;15142;48.888;9.134;2023-02-28T01:04:13;3.83;;;3.30;;
6549;SDS011;15142;48.888;9.134;2023-02-28T01:06:40;6.43;;;3.03;;
6549;SDS011;15142;48.888;9.134;2023-02-28T01:09:09;5.80;;;2.97;;
6549;SDS011;15142;48.888;9.134;2023-02-28T01:11:37;6.17;;;3.37;;
6549;SDS011;15142;48.888;9.134;2023-02-28T01:14:04;3.50;;;3.10;;
6549;SDS011;15142;48.888;9.134;2023-02-28T01:16:30;2.93;;;2.73;;
6549;SDS011;15142;48.888;9.134;2023-02-28T01:18:58;9.53;;;3.57;;
6549;SDS011;15142;48.888;9.134;2023-02-28T01:21:25;5.13;;;3.43;;
6549;SDS011;15142;48.888;9.134;2023-02-28T01:23:52;5.67;;;3.00;;
6549;SDS011;15142;48.888;9.134;2023-02-28T01:26:19;7.70;;;2.73;;
6549;SDS011;15142;48.888;9.134;2023-02-28T01:28:47;9.97;;;3.10;;
6549;SDS011;15142;48.888;9.134;2023-02-28T01:31:14;8.47;;;3.73;;
6549;SDS011;15142;48.888;9.134;2023-02-28T01:33:41;3.73;;;3.00;;
6549;SDS011;15142;48.888;9.134;2023-02-28T01:36:10;4.37;;;3.13;;
6549;SDS011;15142;48.888;9.134;2023-02-28T01:38:38;5.63;;;3.50;;
6549;SDS011;15142;48.888;9.134;2023-02-28T01:41:05;4.47;;;3.27;;
6549;SDS011;15142;48.888;9.134;2023-02-28T01:46:20;6.00;;;3.60;;
6549;SDS011;15142;48.888;9.134;2023-02-28T01:48:48;7.57;;;3.50;;
6549;SDS011;15142;48.888;9.134;2023-02-28T01:51:20;5.33;;;3.30;;
6549;SDS011;15142;48.888;9.134;2023-02-28T01:53:53;3.27;;;3.00;;
6549;SDS011;15142;48.888;9.134;2023-02-28T01:56:23;3.70;;;3.40;;
6549;SDS011;15142;48.888;9.134;2023-02-28T01:58:53;9.10;;;3.20;;
6549;SDS011;15142;48.888;9.134;2023-02-28T02:01:22;4.97;;;2.83;;
6549;SDS011;15142;48.888;9.134;2023-02-28T02:03:53;8.83;;;3.27;;
6549;SDS011;15142;48.888;9.134;2023-02-28T02:06:23;6.37;;;4.60;;
6549;SDS011;15142;48.888;9.134;2023-02-28T02:08:54;6.27;;;4.30;;
6549;SDS011;15142;48.888;9.134;2023-02-28T02:11:21;12.30;;;4.77;;
6549;SDS011;15142;48.888;9.134;2023-02-28T02:13:58;9.27;;;4.70;;
6549;SDS011;15142;48.888;9.134;2023-02-28T02:16:40;5.50;;;4.13;;
6549;SDS011;15142;48.888;9.134;2023-02-28T02:19:18;3.90;;;3.53;;
6549;SDS011;15142;48.888;9.134;2023-02-28T02:22:07;5.60;;;2.70;;
6549;SDS011;15142;48.888;9.134;2023-02-28T02:24:50;4.33;;;3.13;;
6549;SDS011;15142;48.888;9.134;2023-02-28T02:27:27;5.20;;;3.50;;
6549;SDS011;15142;48.888;9.134;2023-02-28T02:33:15;5.47;;;3.77;;
6549;SDS011;15142;48.888;9.134;2023-02-28T02:35:55;7.20;;;3.90;;
6549;SDS011;15142;48.888;9.134;2023-02-28T02:38:27;7.87;;;4.17;;
6549;SDS011;15142;48.888;9.134;2023-02-28T02:41:03;3.23;;;3.03;;
6549;SDS011;15142;48.888;9.134;2023-02-28T02:43:35;4.50;;;3.20;;
6549;SDS011;15142;48.888;9.134;2023-02-28T02:46:06;4.50;;;4.10;;
6549;SDS011;15142;48.888;9.134;2023-02-28T02:48:38;3.80;;;2.90;;
6549;SDS011;15142;48.888;9.134;2023-02-28T02:51:10;5.60;;;3.30;;
6549;SDS011;15142;48.888;9.134;2023-02-28T02:53:41;5.00;;;3.87;;
6549;SDS011;15142;48.888;9.134;2023-02-28T02:56:11;4.13;;;3.37;;
6549;SDS011;15142;48.888;9.134;2023-02-28T02:58:40;6.73;;;3.80;;
6549;SDS011;15142;48.888;9.134;2023-02-28T03:01:10;4.57;;;2.83;;
6549;SDS011;15142;48.888;9.134;2023-02-28T03:03:40;7.83;;;4.37;;
6549;SDS011;15142;48.888;9.134;2023-02-28T03:06:09;6.27;;;4.17;;
6549;SDS011;15142;48.888;9.134;2023-02-28T03:08:37;5.07;;;3.77;;
6549;SDS011;15142;48.888;9.134;2023-02-28T03:11:04;3.70;;;3.40;;
6549;SDS011;15142;48.888;9.134;2023-02-28T03:13:50;3.80;;;3.50;;
6549;SDS011;15142;48.888;9.134;2023-02-28T03:16:32;7.00;;;3.20;;
6549;SDS011;15142;48.888;9.134;2023-02-28T03:19:08;4.93;;;3.70;;
6549;SDS011;15142;48.888;9.134;2023-02-28T03:21:52;11.27;;;5.03;;
6549;SDS011;15142;48.888;9.134;2023-02-28T03:24:27;4.90;;;4.40;;
6549;SDS011;15142;48.888;9.134;2023-02-28T03:27:03;7.73;;;4.70;;
6549;SDS011;15142;48.888;9.134;2023-02-28T03:29:35;4.90;;;3.93;;
6549;SDS011;15142;48.888;9.134;2023-02-28T03:32:06;9.13;;;4.37;;
6549;SDS011;15142;48.888;9.134;2023-02-28T03:34:39;5.10;;;4.23;;
6549;SDS011;15142;48.888;9.134;2023-02-28T03:37:11;5.57;;;3.90;;
6549;SDS011;15142;48.888;9.134;2023-02-28T03:39:42;9.43;;;4.10;;
6549;SDS011;15142;48.888;9.134;2023-02-28T03:42:13;6.50;;;3.80;;
6549;SDS011;15142;48.888;9.134;2023-02-28T03:44:42;6.90;;;4.27;;
6549;SDS011;15142;48.888;9.134;2023-02-28T03:47:12;5.10;;;3.70;;
6549;SDS011;15142;48.888;9.134;2023-02-28T03:49:43;6.50;;;3.97;;
6549;SDS011;15142;48.888;9.134;2023-02-28T03:52:14;7.83;;;4.97;;
6549;SDS011;15142;48.888;9.134;2023-02-28T03:54:41;6.50;;;4.47;;
6549;SDS011;15142;48.888;9.134;2023-02-28T03:57:12;11.33;;;4.53;;
6549;SDS011;15142;48.888;9.134;2023-02-28T03:59:44;4.30;;;3.60;;
6549;SDS011;15142;48.888;9.134;2023-02-28T04:02:16;6.40;;;4.33;;
6549;SDS011;15142;48.888;9.134;2023-02-28T04:04:43;5.03;;;3.73;;
6549;SDS011;15142;48.888;9.134;2023-02-28T04:07:15;7.93;;;4.37;;
6549;SDS011;15142;48.888;9.134;2023-02-28T04:09:41;5.03;;;4.40;;
6549;SDS011;15142;48.888;9.134;2023-02-28T04:12:09;9.27;;;4.23;;
6549;SDS011;15142;48.888;9.134;2023-02-28T04:14:36;8.63;;;4.17;;
6549;SDS011;15142;48.888;9.134;2023-02-28T04:17:02;6.87;;;3.80;;
6549;SDS011;15142;48.888;9.134;2023-02-28T04:19:29;6.43;;;4.30;;
6549;SDS011;15142;48.888;9.134;2023-02-28T04:21:55;8.63;;;5.00;;
6549;SDS011;15142;48.888;9.134;2023-02-28T04:24:24;7.93;;;4.10;;
6549;SDS011;15142;48.888;9.134;2023-02-28T04:26:53;6.23;;;4.10;;
6549;SDS011;15142;48.888;9.134;2023-02-28T04:29:22;7.73;;;4.50;;
6549;SDS011;15142;48.888;9.134;2023-02-28T04:31:50;25.20;;;5.00;;
6549;SDS011;15142;48.888;9.134;2023-02-28T04:34:18;6.70;;;4.50;;
6549;SDS011;15142;48.888;9.134;2023-02-28T04:36:46;5.63;;;4.17;;
6549;SDS011;15142;48.888;9.134;2023-02-28T04:39:14;9.73;;;4.90;;
6549;SDS011;15142;48.888;9.134;2023-02-28T04:41:42;4.87;;;4.07;;
6549;SDS011;15142;48.888;9.134;2023-02-28T04:44:08;15.00;;;4.47;;
6549;SDS011;15142;48.888;9.134;2023-02-28T04:46:35;5.80;;;4.73;;
6549;SDS011;15142;48.888;9.134;2023-02-28T04:49:02;5.40;;;4.30;;
6549;SDS011;15142;48.888;9.134;2023-02-28T04:51:29;6.17;;;3.80;;
6549;SDS011;15142;48.888;9.134;2023-02-28T04:53:55;5.10;;;4.60;;
6549;SDS011;15142;48.888;9.134;2023-02-28T04:56:22;6.20;;;4.10;;
6549;SDS011;15142;48.888;9.134;2023-02-28T04:58:50;8.90;;;4.30;;
6549;SDS011;15142;48.888;9.134;2023-02-28T05:01:22;8.67;;;5.30;;
6549;SDS011;15142;48.888;9.134;2023-02-28T05:03:50;9.60;;;4.83;;
6549;SDS011;15142;48.888;9.134;2023-02-28T05:06:18;14.00;;;4.30;;
6549;SDS011;15142;48.888;9.134;2023-02-28T05:08:46;8.37;;;5.10;;
6549;SDS011;15142;48.888;9.134;2023-02-28T05:11:14;8.43;;;5.20;;
6549;SDS011;15142;48.888;9.134;2023-02-28T05:13:43;7.87;;;4.93;;
6549;SDS011;15142;48.888;9.134;2023-02-28T05:16:11;7.33;;;4.80;;
6549;SDS011;15142;48.888;9.134;2023-02-28T05:18:37;11.40;;;5.87;;
6549;SDS011;15142;48.888;9.134;2023-02-28T05:21:04;5.17;;;4.50;;
6549;SDS011;15142;48.888;9.134;2023-02-28T05:23:31;7.57;;;4.60;;
6549;SDS011;15142;48.888;9.134;2023-02-28T05:25:58;6.10;;;4.77;;
6549;SDS011;15142;48.888;9.134;2023-02-28T05:28:25;12.10;;;4.87;;
6549;SDS011;15142;48.888;9.134;2023-02-28T05:30:51;8.07;;;4.00;;
6549;SDS011;15142;48.888;9.134;2023-02-28T05:33:19;6.40;;;4.43;;
6549;SDS011;15142;48.888;9.134;2023-02-28T05:35:46;6.83;;;5.10;;
6549;SDS011;15142;48.888;9.134;2023-02-28T05:38:12;8.87;;;6.17;;
6549;SDS011;15142;48.888;9.134;2023-02-28T05:40:39;10.27;;;5.27;;
6549;SDS011;15142;48.888;9.134;2023-02-28T05:43:07;6.00;;;5.10;;
6549;SDS011;15142;48.888;9.134;2023-02-28T05:45:36;6.50;;;4.63;;
6549;SDS011;15142;48.888;9.134;2023-02-28T05:48:03;6.70;;;4.67;;
6549;SDS011;15142;48.888;9.134;2023-02-28T05:50:31;5.43;;;4.47;;
6549;SDS011;15142;48.888;9.134;2023-02-28T05:52:58;9.63;;;5.30;;
6549;SDS011;15142;48.888;9.134;2023-02-28T05:55:24;11.60;;;5.60;;
6549;SDS011;15142;48.888;9.134;2023-02-28T05:57:51;9.30;;;5.50;;
6549;SDS011;15142;48.888;9.134;2023-02-28T06:00:18;9.50;;;4.53;;
6549;SDS011;15142;48.888;9.134;2023-02-28T06:02:44;8.80;;;5.20;;
6549;SDS011;15142;48.888;9.134;2023-02-28T06:05:13;9.67;;;5.13;;
6549;SDS011;15142;48.888;9.134;2023-02-28T06:07:42;17.20;;;6.40;;
6549;SDS011;15142;48.888;9.134;2023-02-28T06:10:10;7.63;;;5.40;;
6549;SDS011;15142;48.888;9.134;2023-02-28T06:12:37;7.40;;;4.97;;
6549;SDS011;15142;48.888;9.134;2023-02-28T06:15:07;18.30;;;6.73;;
6549;SDS011;15142;48.888;9.134;2023-02-28T06:17:37;12.20;;;6.30;;
6549;SDS011;15142;48.888;9.134;2023-02-28T06:20:04;13.23;;;5.17;;
6549;SDS011;15142;48.888;9.134;2023-02-28T06:22:31;12.23;;;5.93;;
6549;SDS011;15142;48.888;9.134;2023-02-28T06:24:59;8.57;;;5.70;;
6549;SDS011;15142;48.888;9.134;2023-02-28T06:27:26;7.53;;;5.73;;
6549;SDS011;15142;48.888;9.134;2023-02-28T06:29:53;8.83;;;6.53;;
6549;SDS011;15142;48.888;9.134;2023-02-28T06:32:20;8.13;;;4.87;;
6549;SDS011;15142;48.888;9.134;2023-02-28T06:34:47;6.70;;;5.20;;
6549;SDS011;15142;48.888;9.134;2023-02-28T06:37:15;16.00;;;6.30;;
6549;SDS011;15142;48.888;9.134;2023-02-28T06:39:42;12.77;;;5.70;;
6549;SDS011;15142;48.888;9.134;2023-02-28T06:42:09;20.43;;;5.80;;
6549;SDS011;15142;48.888;9.134;2023-02-28T06:44:36;11.60;;;6.03;;
6549;SDS011;15142;48.888;9.134;2023-02-28T06:47:11;5.97;;;4.50;;
6549;SDS011;15142;48.888;9.134;2023-02-28T06:49:47;10.07;;;5.47;;
6549;SDS011;15142;48.888;9.134;2023-02-28T06:52:14;8.70;;;6.07;;
6549;SDS011;15142;48.888;9.134;2023-02-28T06:54:40;12.13;;;6.37;;
6549;SDS011;15142;48.888;9.134;2023-02-28T06:57:07;11.37;;;5.67;;
6549;SDS011;15142;48.888;9.134;2023-02-28T06:59:35;12.40;;;6.60;;
6549;SDS011;15142;48.888;9.134;2023-02-28T07:02:02;12.60;;;6.97;;
6549;SDS011;15142;48.888;9.134;2023-02-28T07:04:28;10.10;;;5.83;;
6549;SDS011;15142;48.888;9.134;2023-02-28T07:06:55;10.80;;;5.43;;
6549;SDS011;15142;48.888;9.134;2023-02-28T07:09:22;7.90;;;5.10;;
6549;SDS011;15142;48.888;9.134;2023-02-28T07:11:48;9.63;;;6.33;;
6549;SDS011;15142;48.888;9.134;2023-02-28T07:14:15;8.60;;;6.23;;
6549;SDS011;15142;48.888;9.134;2023-02-28T07:16:43;9.00;;;6.67;;
6549;SDS011;15142;48.888;9.134;2023-02-28T07:19:10;17.20;;;6.60;;
6549;SDS011;15142;48.888;9.134;2023-02-28T07:21:37;14.60;;;6.83;;
6549;SDS011;15142;48.888;9.134;2023-02-28T07:24:03;12.63;;;6.70;;
6549;SDS011;15142;48.888;9.134;2023-02-28T07:26:30;10.07;;;6.60;;
6549;SDS011;15142;48.888;9.134;2023-02-28T07:28:59;12.07;;;6.23;;
6549;SDS011;15142;48.888;9.134;2023-02-28T07:31:25;9.43;;;6.80;;
6549;SDS011;15142;48.888;9.134;2023-02-28T07:33:53;9.87;;;6.10;;
6549;SDS011;15142;48.888;9.134;2023-02-28T07:36:21;9.53;;;5.87;;
6549;SDS011;15142;48.888;9.134;2023-02-28T07:38:48;8.87;;;6.30;;
6549;SDS011;15142;48.888;9.134;2023-02-28T07:41:16;15.37;;;6.60;;
6549;SDS011;15142;48.888;9.134;2023-02-28T07:43:43;9.13;;;6.73;;
6549;SDS011;15142;48.888;9.134;2023-02-28T07:46:11;18.63;;;7.37;;
6549;SDS011;15142;48.888;9.134;2023-02-28T07:48:40;10.27;;;6.57;;
6549;SDS011;15142;48.888;9.134;2023-02-28T07:51:08;10.87;;;6.50;;
6549;SDS011;15142;48.888;9.134;2023-02-28T07:53:34;13.13;;;8.13;;
6549;SDS011;15142;48.888;9.134;2023-02-28T07:56:01;8.20;;;6.77;;
6549;SDS011;15142;48.888;9.134;2023-02-28T07:58:29;11.63;;;7.47;;
6549;SDS011;15142;48.888;9.134;2023-02-28T08:00:56;10.63;;;7.13;;
6549;SDS011;15142;48.888;9.134;2023-02-28T08:03:23;14.43;;;8.53;;
6549;SDS011;15142;48.888;9.134;2023-02-28T08:05:50;15.97;;;10.23;;
6549;SDS011;15142;48.888;9.134;2023-02-28T08:08:18;15.13;;;8.13;;
6549;SDS011;15142;48.888;9.134;2023-02-28T08:10:45;14.50;;;8.47;;
6549;SDS011;15142;48.888;9.134;2023-02-28T08:13:12;10.53;;;7.60;;
6549;SDS011;15142;48.888;9.134;2023-02-28T08:15:40;11.27;;;7.20;;
6549;SDS011;15142;48.888;9.134;2023-02-28T08:18:07;10.40;;;6.43;;
6549;SDS011;15142;48.888;9.134;2023-02-28T08:20:33;25.43;;;7.53;;
6549;SDS011;15142;48.888;9.134;2023-02-28T08:23:00;14.47;;;7.13;;
6549;SDS011;15142;48.888;9.134;2023-02-28T08:25:28;11.67;;;7.10;;
6549;SDS011;15142;48.888;9.134;2023-02-28T08:27:54;13.03;;;7.50;;
6549;SDS011;15142;48.888;9.134;2023-02-28T08:30:21;14.33;;;7.00;;
6549;SDS011;15142;48.888;9.134;2023-02-28T08:32:47;10.53;;;6.60;;
6549;SDS011;15142;48.888;9.134;2023-02-28T08:35:14;15.07;;;8.17;;
6549;SDS011;15142;48.888;9.134;2023-02-28T08:37:41;13.63;;;7.30;;
6549;SDS011;15142;48.888;9.134;2023-02-28T08:40:08;13.27;;;8.60;;
6549;SDS011;15142;48.888;9.134;2023-02-28T08:42:36;11.90;;;8.47;;
6549;SDS011;15142;48.888;9.134;2023-02-28T08:45:03;12.30;;;8.50;;
6549;SDS011;15142;48.888;9.134;2023-02-28T08:47:30;18.30;;;8.30;;
6549;SDS011;15142;48.888;9.134;2023-02-28T08:49:57;11.60;;;6.77;;
6549;SDS011;15142;48.888;9.134;2023-02-28T08:52:24;10.40;;;6.33;;
6549;SDS011;15142;48.888;9.134;2023-02-28T08:54:50;9.57;;;5.97;;
6549;SDS011;15142;48.888;9.134;2023-02-28T08:57:17;15.93;;;8.50;;
6549;SDS011;15142;48.888;9.134;2023-02-28T08:59:45;10.10;;;7.43;;
6549;SDS011;15142;48.888;9.134;2023-02-28T09:02:12;11.63;;;6.90;;
6549;SDS011;15142;48.888;9.134;2023-02-28T09:04:39;14.63;;;7.47;;
6549;SDS011;15142;48.888;9.134;2023-02-28T09:07:06;10.83;;;7.13;;
6549;SDS011;15142;48.888;9.134;2023-02-28T09:09:33;15.93;;;8.00;;
6549;SDS011;15142;48.888;9.134;2023-02-28T09:11:59;11.40;;;7.40;;
6549;SDS011;15142;48.888;9.134;2023-02-28T09:14:26;11.80;;;7.83;;
6549;SDS011;15142;48.888;9.134;2023-02-28T09:16:54;14.77;;;7.83;;
6549;SDS011;15142;48.888;9.134;2023-02-28T09:19:21;12.57;;;8.10;;
6549;SDS011;15142;48.888;9.134;2023-02-28T09:21:48;13.00;;;7.90;;
6549;SDS011;15142;48.888;9.134;2023-02-28T09:24:14;11.80;;;8.07;;
6549;SDS011;15142;48.888;9.134;2023-02-28T09:26:41;14.67;;;7.30;;
6549;SDS011;15142;48.888;9.134;2023-02-28T09:29:07;11.83;;;7.33;;
6549;SDS011;15142;48.888;9.134;2023-02-28T09:31:34;17.70;;;8.87;;
6549;SDS011;15142;48.888;9.134;2023-02-28T09:34:03;10.50;;;7.37;;
6549;SDS011;15142;48.888;9.134;2023-02-28T09:36:30;11.60;;;7.33;;
6549;SDS011;15142;48.888;9.134;2023-02-28T09:38:58;11.60;;;7.47;;
6549;SDS011;15142;48.888;9.134;2023-02-28T09:41:25;12.37;;;6.90;;
6549;SDS011;15142;48.888;9.134;2023-02-28T09:43:55;10.13;;;7.13;;
6549;SDS011;15142;48.888;9.134;2023-02-28T09:46:27;15.47;;;8.10;;
6549;SDS011;15142;48.888;9.134;2023-02-28T09:48:58;17.80;;;7.63;;
6549;SDS011;15142;48.888;9.134;2023-02-28T09:51:42;14.43;;;8.30;;
6549;SDS011;15142;48.888;9.134;2023-02-28T09:54:16;14.97;;;8.80;;
6549;SDS011;15142;48.888;9.134;2023-02-28T09:56:45;11.30;;;7.10;;
6549;SDS011;15142;48.888;9.134;2023-02-28T09:59:20;17.63;;;8.80;;
6549;SDS011;15142;48.888;9.134;2023-02-28T10:01:56;19.83;;;8.20;;
6549;SDS011;15142;48.888;9.134;2023-02-28T10:04:35;19.60;;;12.93;;
6549;SDS011;15142;48.888;9.134;2023-02-28T10:07:10;15.27;;;8.27;;
6549;SDS011;15142;48.888;9.134;2023-02-28T10:09:45;10.20;;;7.60;;
6549;SDS011;15142;48.888;9.134;2023-02-28T10:12:16;13.07;;;8.20;;
6549;SDS011;15142;48.888;9.134;2023-02-28T10:14:44;11.60;;;8.30;;
6549;SDS011;15142;48.888;9.134;2023-02-28T10:17:14;14.80;;;8.80;;
6549;SDS011;15142;48.888;9.134;2023-02-28T10:19:47;13.10;;;8.43;;
6549;SDS011;15142;48.888;9.134;2023-02-28T10:22:20;12.80;;;8.50;;
6549;SDS011;15142;48.888;9.134;2023-02-28T10:24:52;16.00;;;7.70;;
6549;SDS011;15142;48.888;9.134;2023-02-28T10:27:22;15.77;;;7.97;;
6549;SDS011;15142;48.888;9.134;2023-02-28T10:29:50;15.17;;;7.50;;
6549;SDS011;15142;48.888;9.134;2023-02-28T10:32:18;30.33;;;8.33;;
6549;SDS011;15142;48.888;9.134;2023-02-28T10:34:46;16.47;;;8.10;;
6549;SDS011;15142;48.888;9.134;2023-02-28T10:37:20;17.13;;;7.87;;
6549;SDS011;15142;48.888;9.134;2023-02-28T10:39:47;22.03;;;8.20;;
6549;SDS011;15142;48.888;9.134;2023-02-28T10:42:18;11.30;;;7.10;;
6549;SDS011;15142;48.888;9.134;2023-02-28T10:44:47;15.70;;;7.37;;
6549;SDS011;15142;48.888;9.134;2023-02-28T10:47:14;11.27;;;7.23;;
6549;SDS011;15142;48.888;9.134;2023-02-28T10:49:46;12.10;;;7.77;;
6549;SDS011;15142;48.888;9.134;2023-02-28T10:52:14;18.37;;;7.90;;
6549;SDS011;15142;48.888;9.134;2023-02-28T10:55:15;15.17;;;7.53;;
6549;SDS011;15142;48.888;9.134;2023-02-28T10:57:47;11.77;;;8.17;;
6549;SDS011;15142;48.888;9.134;2023-02-28T11:00:14;14.90;;;8.20;;
6549;SDS011;15142;48.888;9.134;2023-02-28T11:02:43;11.40;;;8.37;;
6549;SDS011;15142;48.888;9.134;2023-02-28T11:05:22;14.67;;;7.97;;
6549;SDS011;15142;48.888;9.134;2023-02-28T11:07:52;11.40;;;7.70;;
6549;SDS011;15142;48.888;9.134;2023-02-28T11:10:20;14.70;;;8.33;;
6549;SDS011;15142;48.888;9.134;2023-02-28T11:12:53;16.33;;;8.20;;
6549;SDS011;15142;48.888;9.134;2023-02-28T11:15:22;11.63;;;7.27;;
6549;SDS011;15142;48.888;9.134;2023-02-28T11:17:54;12.93;;;7.37;;
6549;SDS011;15142;48.888;9.134;2023-02-28T11:20:23;16.03;;;8.47;;
6549;SDS011;15142;48.888;9.134;2023-02-28T11:22:53;13.73;;;8.77;;
6549;SDS011;15142;48.888;9.134;2023-02-28T11:25:22;14.87;;;9.73;;
6549;SDS011;15142;48.888;9.134;2023-02-28T11:27:52;15.47;;;8.70;;
6549;SDS011;15142;48.888;9.134;2023-02-28T11:30:24;11.57;;;8.30;;
6549;SDS011;15142;48.888;9.134;2023-02-28T11:32:52;14.87;;;8.37;;
6549;SDS011;15142;48.888;9.134;2023-02-28T11:35:21;10.87;;;7.67;;
6549;SDS011;15142;48.888;9.134;2023-02-28T11:37:52;12.53;;;7.70;;
6549;SDS011;15142;48.888;9.134;2023-02-28T11:40:22;14.27;;;8.50;;
6549;SDS011;15142;48.888;9.134;2023-02-28T11:43:02;7.93;;;6.70;;
6549;SDS011;15142;48.888;9.134;2023-02-28T11:45:40;13.70;;;8.83;;
6549;SDS011;15142;48.888;9.134;2023-02-28T11:48:17;9.47;;;6.67;;
6549;SDS011;15142;48.888;9.134;2023-02-28T11:51:00;12.00;;;7.23;;
6549;SDS011;15142;48.888;9.134;2023-02-28T11:53:43;9.30;;;7.53;;
6549;SDS011;15142;48.888;9.134;2023-02-28T11:56:19;10.93;;;7.30;;
6549;SDS011;15142;48.888;9.134;2023-02-28T11:58:54;13.60;;;7.23;;
6549;SDS011;15142;48.888;9.134;2023-02-28T12:01:36;14.10;;;8.83;;
6549;SDS011;15142;48.888;9.134;2023-02-28T12:04:13;14.77;;;8.20;;
6549;SDS011;15142;48.888;9.134;2023-02-28T12:06:49;8.87;;;7.47;;
6549;SDS011;15142;48.888;9.134;2023-02-28T12:09:28;9.93;;;6.90;;
6549;SDS011;15142;48.888;9.134;2023-02-28T12:12:06;10.73;;;7.27;;
6549;SDS011;15142;48.888;9.134;2023-02-28T12:14:59;12.40;;;8.40;;
6549;SDS011;15142;48.888;9.134;2023-02-28T12:17:46;15.70;;;8.77;;
6549;SDS011;15142;48.888;9.134;2023-02-28T12:20:23;8.97;;;7.07;;
6549;SDS011;15142;48.888;9.134;2023-02-28T12:22:57;14.10;;;6.97;;
6549;SDS011;15142;48.888;9.134;2023-02-28T12:25:40;11.03;;;7.67;;
6549;SDS011;15142;48.888;9.134;2023-02-28T12:28:23;11.27;;;7.97;;
6549;SDS011;15142;48.888;9.134;2023-02-28T12:30:56;18.23;;;7.97;;
6549;SDS011;15142;48.888;9.134;2023-02-28T12:33:28;14.30;;;8.33;;
6549;SDS011;15142;48.888;9.134;2023-02-28T12:36:01;11.10;;;7.67;;
6549;SDS011;15142;48.888;9.134;2023-02-28T12:38:34;7.40;;;6.23;;
6549;SDS011;15142;48.888;9.134;2023-02-28T12:41:08;7.80;;;6.63;;
6549;SDS011;15142;48.888;9.134;2023-02-28T12:43:40;12.83;;;7.17;;
6549;SDS011;15142;48.888;9.134;2023-02-28T12:46:10;10.10;;;6.83;;
6549;SDS011;15142;48.888;9.134;2023-02-28T12:48:43;6.90;;;5.83;;
6549;SDS011;15142;48.888;9.134;2023-02-28T12:51:12;12.90;;;7.20;;
6549;SDS011;15142;48.888;9.134;2023-02-28T12:53:45;10.37;;;7.37;;
6549;SDS011;15142;48.888;9.134;2023-02-28T12:56:22;8.53;;;7.33;;
6549;SDS011;15142;48.888;9.134;2023-02-28T12:58:56;8.77;;;6.70;;
6549;SDS011;15142;48.888;9.134;2023-02-28T13:01:34;11.33;;;7.30;;
6549;SDS011;15142;48.888;9.134;2023-02-28T13:04:17;10.30;;;7.50;;
6549;SDS011;15142;48.888;9.134;2023-02-28T13:07:12;10.07;;;7.57;;
6549;SDS011;15142;48.888;9.134;2023-02-28T13:09:56;9.43;;;7.17;;
6549;SDS011;15142;48.888;9.134;2023-02-28T13:12:26;10.33;;;6.77;;
6549;SDS011;15142;48.888;9.134;2023-02-28T13:15:00;8.87;;;6.90;;
6549;SDS011;15142;48.888;9.134;2023-02-28T13:17:31;7.93;;;6.70;;
6549;SDS011;15142;48.888;9.134;2023-02-28T13:19:59;11.07;;;7.50;;
6549;SDS011;15142;48.888;9.134;2023-02-28T13:22:39;13.40;;;8.17;;
6549;SDS011;15142;48.888;9.134;2023-02-28T13:28:13;14.40;;;7.37;;
6549;SDS011;15142;48.888;9.134;2023-02-28T13:31:23;8.97;;;6.60;;
6549;SDS011;15142;48.888;9.134;2023-02-28T13:34:04;13.47;;;7.07;;
6549;SDS011;15142;48.888;9.134;2023-02-28T13:36:38;8.33;;;7.40;;
6549;SDS011;15142;48.888;9.134;2023-02-28T13:39:44;11.70;;;7.63;;
6549;SDS011;15142;48.888;9.134;2023-02-28T13:42:30;12.43;;;7.30;;
6549;SDS011;15142;48.888;9.134;2023-02-28T13:45:22;11.47;;;7.23;;
6549;SDS011;15142;48.888;9.134;2023-02-28T13:47:54;9.60;;;7.20;;
6549;SDS011;15142;48.888;9.134;2023-02-28T13:50:24;16.17;;;7.43;;
6549;SDS011;15142;48.888;9.134;2023-02-28T13:52:59;11.33;;;6.90;;
6549;SDS011;15142;48.888;9.134;2023-02-28T13:55:43;13.67;;;8.17;;
6549;SDS011;15142;48.888;9.134;2023-02-28T13:58:25;10.30;;;7.70;;
6549;SDS011;15142;48.888;9.134;2023-02-28T14:01:07;12.97;;;7.93;;
6549;SDS011;15142;48.888;9.134;2023-02-28T14:03:49;7.80;;;6.57;;
6549;SDS011;15142;48.888;9.134;2023-02-28T14:06:26;9.27;;;6.57;;
6549;SDS011;15142;48.888;9.134;2023-02-28T14:08:57;11.90;;;6.83;;
6549;SDS011;15142;48.888;9.134;2023-02-28T14:11:29;15.47;;;8.00;;
6549;SDS011;15142;48.888;9.134;2023-02-28T14:13:57;9.63;;;7.77;;
6549;SDS011;15142;48.888;9.134;2023-02-28T14:16:26;13.03;;;8.63;;
6549;SDS011;15142;48.888;9.134;2023-02-28T14:18:56;15.30;;;8.40;;
6549;SDS011;15142;48.888;9.134;2023-02-28T14:21:26;18.13;;;10.93;;
6549;SDS011;15142;48.888;9.134;2023-02-28T14:24:03;27.47;;;12.67;;
6549;SDS011;15142;48.888;9.134;2023-02-28T14:32:54;14.70;;;7.83;;
6549;SDS011;15142;48.888;9.134;2023-02-28T14:35:35;10.00;;;7.23;;
6549;SDS011;15142;48.888;9.134;2023-02-28T14:38:13;10.87;;;8.03;;
6549;SDS011;15142;48.888;9.134;2023-02-28T14:40:43;10.57;;;7.77;;
6549;SDS011;15142;48.888;9.134;2023-02-28T14:43:19;15.63;;;10.00;;
6549;SDS011;15142;48.888;9.134;2023-02-28T14:45:49;12.57;;;9.20;;
6549;SDS011;15142;48.888;9.134;2023-02-28T14:48:19;11.23;;;8.17;;
6549;SDS011;15142;48.888;9.134;2023-02-28T14:50:48;13.00;;;8.20;;
6549;SDS011;15142;48.888;9.134;2023-02-28T14:53:17;16.43;;;8.53;;
6549;SDS011;15142;48.888;9.134;2023-02-28T14:55:46;12.23;;;8.20;;
6549;SDS011;15142;48.888;9.134;2023-02-28T14:58:20;9.73;;;8.40;;
6549;SDS011;15142;48.888;9.134;2023-02-28T15:00:50;9.70;;;7.80;;
6549;SDS011;15142;48.888;9.134;2023-02-28T15:03:20;13.93;;;8.27;;
6549;SDS011;15142;48.888;9.134;2023-02-28T15:05:52;13.70;;;8.93;;
6549;SDS011;15142;48.888;9.134;2023-02-28T15:08:21;15.40;;;10.30;;
6549;SDS011;15142;48.888;9.134;2023-02-28T15:10:51;17.17;;;9.23;;
6549;SDS011;15142;48.888;9.134;2023-02-28T15:13:20;18.10;;;9.47;;
6549;SDS011;15142;48.888;9.134;2023-02-28T15:15:49;14.80;;;7.77;;
6549;SDS011;15142;48.888;9.134;2023-02-28T15:18:26;14.60;;;8.00;;
6549;SDS011;15142;48.888;9.134;2023-02-28T15:20:57;14.63;;;8.93;;
6549;SDS011;15142;48.888;9.134;2023-02-28T15:23:28;11.57;;;8.20;;
6549;SDS011;15142;48.888;9.134;2023-02-28T15:25:56;24.43;;;8.70;;
6549;SDS011;15142;48.888;9.134;2023-02-28T15:28:23;18.20;;;8.50;;